Airfield :







YOU CAN JOIN US ON...

 
LOGIN :

Register | Disclaimer

   EN    FR    IT 

 









Legend :    VFR   Marginal VFR   IFR   Intensive IFR   Very Intensive IFR
Visi :
Ceiling :
>= 8 km
>= 3000ft
5 to 8 km
1000 to 3000 ft
1500m to 5 km
500 to 1000 ft
800 to 1500m
200 to 500 ft
< 800m
< 200 ft
Symbols :   Thunderstorms  Fog  Heavy snow  Heavy precipitations  Wind > 20 kt







- Airport Elevation : 408 ft


KMLT - Millinocket Municipal

CURRENT METAR :
  • 250053Z AUTO 00000KT 10SM CLR 16/06 A2989 RMK AO2 SLP124 T01610061

EXPIRED METARs :
  • 242353Z AUTO 34003KT 10SM CLR 22/03 A2986 RMK AO2 SLP116 T02170033 10244 20217 53014
  • 242253Z AUTO 33006KT 10SM CLR 24/02 A2984 RMK AO2 SLP109 T02390022

TAF N/A
KZBW FIR / North America



MET'MAP, your aeronautical weather chart ! - Copyright ORBIFLY December 2007 - Disclaimer

ORBIFLY MET'MAP TEAM :

Programming & Development : Alexandra Zaïnal
Concept & Development : Baudouin d'Aumeries
Co-Development & Prog : Marc-Olivier Méhu
Technical & hardware support : Manuel Goepfert

Contact : metmap@orbifly.com




SOURCES & CREDITS :

   NOAA